createdAt,value
2022-10-05T00:00:00.042Z,8.78
2022-10-05T00:02:27.163Z,8.71
2022-10-05T00:04:56.644Z,8.69
2022-10-05T00:07:24.597Z,8.65
2022-10-05T00:09:57.481Z,8.65
2022-10-05T00:12:25.656Z,8.65
2022-10-05T00:14:55.473Z,8.69
2022-10-05T00:17:27.339Z,8.71
2022-10-05T00:19:54.173Z,8.73
2022-10-05T00:22:29.756Z,8.73
2022-10-05T00:24:58.971Z,8.67
2022-10-05T00:27:31.464Z,8.66
2022-10-05T00:30:02.293Z,8.69
2022-10-05T00:32:28.990Z,8.73
2022-10-05T00:34:57.428Z,8.73
2022-10-05T00:37:24.001Z,8.70
2022-10-05T00:39:50.631Z,8.67
2022-10-05T00:42:57.038Z,8.60
2022-10-05T00:45:49.724Z,8.46
2022-10-05T00:48:28.994Z,8.46
2022-10-05T00:51:16.219Z,8.46
2022-10-05T00:53:46.285Z,8.37
2022-10-05T00:56:28.430Z,8.30
2022-10-05T00:59:14.737Z,8.24
2022-10-05T01:02:08.568Z,8.20
2022-10-05T01:05:09.217Z,8.04
2022-10-05T01:07:38.793Z,7.91
2022-10-05T01:10:18.884Z,7.89
2022-10-05T01:12:54.298Z,7.86
2022-10-05T01:15:30.447Z,7.86
2022-10-05T01:18:08.539Z,7.98
2022-10-05T01:20:39.507Z,8.08
2022-10-05T01:23:12.003Z,8.36
2022-10-05T01:25:47.998Z,8.68
2022-10-05T01:28:24.442Z,8.90
2022-10-05T01:31:10.568Z,9.05
2022-10-05T01:34:00.242Z,9.13
2022-10-05T01:36:44.442Z,9.22
2022-10-05T01:39:17.578Z,9.32
2022-10-05T01:41:59.242Z,9.37
2022-10-05T01:44:33.517Z,9.37
2022-10-05T01:47:14.396Z,9.46
2022-10-05T01:49:44.010Z,9.49
2022-10-05T01:52:27.349Z,9.57
2022-10-05T01:55:18.738Z,9.68
2022-10-05T01:58:10.878Z,9.73
2022-10-05T02:00:46.808Z,9.73
2022-10-05T02:03:21.222Z,9.76
2022-10-05T02:05:56.709Z,9.75
2022-10-05T02:08:38.933Z,9.77
2022-10-05T02:11:09.142Z,9.71
2022-10-05T02:13:41.557Z,9.69
2022-10-05T02:16:30.113Z,9.63
2022-10-05T02:18:59.246Z,9.53
2022-10-05T02:21:27.430Z,9.46
2022-10-05T02:23:59.023Z,9.33
2022-10-05T02:26:26.916Z,9.20
2022-10-05T02:29:05.681Z,9.05
2022-10-05T02:31:47.747Z,8.98
2022-10-05T02:34:40.970Z,8.90
2022-10-05T02:37:55.937Z,8.78
2022-10-05T02:40:31.762Z,8.69
2022-10-05T02:43:25.631Z,8.64
2022-10-05T02:46:11.971Z,8.64
2022-10-05T02:48:55.009Z,8.56
2022-10-05T02:51:38.379Z,8.52
2022-10-05T02:54:17.153Z,8.47
2022-10-05T02:57:25.738Z,8.43
2022-10-05T03:00:04.176Z,8.36
2022-10-05T03:03:15.571Z,8.27
2022-10-05T03:05:58.738Z,8.15
2022-10-05T03:08:29.529Z,8.05
2022-10-05T03:11:22.539Z,7.97
2022-10-05T03:14:01.429Z,8.00
2022-10-05T03:16:38.498Z,7.98
2022-10-05T03:19:47.994Z,8.04
2022-10-05T03:22:33.173Z,8.29
2022-10-05T03:25:50.897Z,8.59
2022-10-05T03:28:20.464Z,8.73
2022-10-05T03:31:14.370Z,8.92
2022-10-05T03:33:48.890Z,9.07
2022-10-05T03:36:25.175Z,9.21
2022-10-05T03:38:59.197Z,9.30
2022-10-05T03:41:40.884Z,9.34
2022-10-05T03:44:23.253Z,9.28
2022-10-05T03:47:07.861Z,9.19
2022-10-05T03:50:08.346Z,9.15
2022-10-05T03:52:42.798Z,9.01
2022-10-05T03:55:24.340Z,9.04
2022-10-05T03:57:56.399Z,9.07
2022-10-05T04:00:23.851Z,9.17
2022-10-05T04:03:18.705Z,9.25
2022-10-05T04:06:10.187Z,9.40
2022-10-05T04:08:48.891Z,9.49
2022-10-05T04:11:35.035Z,9.53
2022-10-05T04:14:12.649Z,9.56
2022-10-05T04:16:47.318Z,9.61
2022-10-05T04:19:23.289Z,9.68
2022-10-05T04:22:06.331Z,9.73
2022-10-05T04:24:40.637Z,9.79
2022-10-05T04:27:14.992Z,9.83
2022-10-05T04:29:50.858Z,9.84
2022-10-05T04:32:36.961Z,9.89
2022-10-05T04:35:17.397Z,9.98
2022-10-05T04:38:04.681Z,10.08
2022-10-05T04:40:56.153Z,10.17
2022-10-05T04:43:51.329Z,10.28
2022-10-05T04:46:40.388Z,10.38
2022-10-05T04:49:27.267Z,10.47
2022-10-05T04:52:10.548Z,10.53
2022-10-05T04:55:01.169Z,10.61
2022-10-05T04:57:38.531Z,10.64
2022-10-05T05:00:22.952Z,10.67
2022-10-05T05:02:56.893Z,10.70
2022-10-05T05:06:16.940Z,10.72
2022-10-05T05:08:53.448Z,10.72
2022-10-05T05:11:28.778Z,10.73
2022-10-05T05:14:13.885Z,10.72
2022-10-05T05:16:43.139Z,10.71
2022-10-05T05:19:37.449Z,10.70
2022-10-05T05:22:11.736Z,10.68
2022-10-05T05:24:50.883Z,10.66
2022-10-05T05:27:32.735Z,10.64
2022-10-05T05:30:24.224Z,10.60
2022-10-05T05:33:18.289Z,10.59
2022-10-05T05:36:06.567Z,10.58
2022-10-05T05:38:39.496Z,10.59
2022-10-05T05:41:13.714Z,10.62
2022-10-05T05:43:55.825Z,10.65
2022-10-05T05:47:02.285Z,10.66
2022-10-05T05:49:38.742Z,10.71
2022-10-05T05:52:15.478Z,10.75
2022-10-05T05:54:57.001Z,10.78
2022-10-05T05:57:41.490Z,10.81
2022-10-05T06:00:21.461Z,10.83
2022-10-05T06:03:02.280Z,10.84
2022-10-05T06:05:35.611Z,10.85
2022-10-05T06:08:30.171Z,10.84
2022-10-05T06:11:17.050Z,10.90
2022-10-05T06:13:44.117Z,10.94
2022-10-05T06:16:18.805Z,10.96
2022-10-05T06:18:57.193Z,11.00
2022-10-05T06:21:45.417Z,11.07
2022-10-05T06:24:21.039Z,11.07
2022-10-05T06:27:06.869Z,11.16
2022-10-05T06:30:04.876Z,11.21
2022-10-05T06:32:35.739Z,11.27
2022-10-05T06:35:08.959Z,11.33
2022-10-05T06:37:48.546Z,11.38
2022-10-05T06:40:43.909Z,11.55
2022-10-05T06:43:24.802Z,11.56
2022-10-05T06:46:31.615Z,11.62
2022-10-05T06:49:43.638Z,11.69
2022-10-05T06:52:20.107Z,11.76
2022-10-05T06:55:14.507Z,11.87
2022-10-05T06:58:23.686Z,11.94
2022-10-05T07:00:54.797Z,12.01
2022-10-05T07:03:35.689Z,12.13
2022-10-05T07:06:25.330Z,12.21
2022-10-05T07:09:23.350Z,12.42
2022-10-05T07:12:04.616Z,12.60
2022-10-05T07:14:53.125Z,12.77
2022-10-05T07:17:44.191Z,12.93
2022-10-05T07:20:26.385Z,13.07
2022-10-05T07:23:15.840Z,13.00
2022-10-05T07:25:50.305Z,13.24
2022-10-05T07:28:31.388Z,13.49
2022-10-05T07:31:34.020Z,13.69
2022-10-05T07:34:09.780Z,13.62
2022-10-05T07:37:03.050Z,13.72
2022-10-05T07:40:01.160Z,13.82
2022-10-05T07:42:52.292Z,13.90
2022-10-05T07:45:37.987Z,13.95
2022-10-05T07:48:43.389Z,14.03
2022-10-05T07:51:24.593Z,14.19
2022-10-05T07:54:12.089Z,14.22
2022-10-05T07:56:43.462Z,14.21
2022-10-05T07:59:20.356Z,14.31
2022-10-05T08:01:53.052Z,14.40
2022-10-05T08:04:41.524Z,14.39
2022-10-05T08:07:15.675Z,14.48
2022-10-05T08:09:50.543Z,14.59
2022-10-05T08:12:34.716Z,14.74
2022-10-05T08:15:15.729Z,14.84
2022-10-05T08:17:53.546Z,14.85
2022-10-05T08:20:39.955Z,14.82
2022-10-05T08:23:41.568Z,14.92
2022-10-05T08:26:28.699Z,14.85
2022-10-05T08:29:24.046Z,15.06
2022-10-05T08:31:56.266Z,15.19
2022-10-05T08:34:31.026Z,15.06
2022-10-05T08:37:08.918Z,14.99
2022-10-05T08:39:54.665Z,15.27
2022-10-05T08:42:23.970Z,15.41
2022-10-05T08:45:09.081Z,15.66
2022-10-05T08:47:57.514Z,15.71
2022-10-05T08:50:42.388Z,15.81
2022-10-05T08:53:24.964Z,15.69
2022-10-05T08:56:42.952Z,15.61
2022-10-05T08:59:18.181Z,16.09
2022-10-05T09:02:09.989Z,16.32
2022-10-05T09:05:10.177Z,16.44
2022-10-05T09:08:01.550Z,16.11
2022-10-05T09:10:33.897Z,16.08
2022-10-05T09:13:28.289Z,16.78
2022-10-05T09:16:23.844Z,16.24
2022-10-05T09:18:59.802Z,16.49
2022-10-05T09:21:57.022Z,16.33
2022-10-05T09:24:58.825Z,15.79
2022-10-05T09:27:36.575Z,15.99
2022-10-05T09:30:03.092Z,16.61
2022-10-05T09:32:43.403Z,16.57
2022-10-05T09:35:34.430Z,17.32
2022-10-05T09:38:18.669Z,16.88
2022-10-05T09:41:23.599Z,16.66
2022-10-05T09:44:05.090Z,16.87
2022-10-05T09:46:59.035Z,16.85
2022-10-05T09:49:28.615Z,16.86
2022-10-05T09:52:32.885Z,16.42
2022-10-05T09:55:21.123Z,16.93
2022-10-05T09:58:28.283Z,16.84
2022-10-05T10:01:09.551Z,17.11
2022-10-05T10:04:07.095Z,16.80
2022-10-05T10:07:05.069Z,17.04
2022-10-05T10:09:52.622Z,17.09
2022-10-05T10:12:56.877Z,17.11
2022-10-05T10:15:57.797Z,17.12
2022-10-05T10:18:27.162Z,17.33
2022-10-05T10:21:03.170Z,17.37
2022-10-05T10:24:00.317Z,17.35
2022-10-05T10:26:55.390Z,17.66
2022-10-05T10:29:49.932Z,17.84
2022-10-05T10:32:16.472Z,17.75
2022-10-05T10:34:45.759Z,17.87
2022-10-05T10:37:30.928Z,17.95
2022-10-05T10:40:03.506Z,18.03
2022-10-05T10:42:35.658Z,17.87
2022-10-05T10:45:19.346Z,17.88
2022-10-05T10:48:12.111Z,17.71
2022-10-05T10:50:47.728Z,17.93
2022-10-05T10:53:40.082Z,17.97
2022-10-05T10:56:25.055Z,18.05
2022-10-05T10:59:26.659Z,18.10
2022-10-05T11:02:14.907Z,18.07
2022-10-05T11:04:58.870Z,18.18
2022-10-05T11:07:52.457Z,18.33
2022-10-05T11:10:51.424Z,18.36
2022-10-05T11:13:30.056Z,18.41
2022-10-05T11:16:30.602Z,18.24
2022-10-05T11:19:00.713Z,18.57
2022-10-05T11:21:36.848Z,18.68
2022-10-05T11:24:22.283Z,18.66
2022-10-05T11:30:05.606Z,18.69
2022-10-05T11:32:48.337Z,18.71
2022-10-05T11:35:39.488Z,18.56
2022-10-05T11:38:18.065Z,18.47
2022-10-05T11:40:56.600Z,18.50
2022-10-05T11:44:04.615Z,18.50
2022-10-05T11:47:02.751Z,18.55
2022-10-05T11:49:46.408Z,18.55
2022-10-05T11:52:24.463Z,18.42
2022-10-05T11:55:11.342Z,18.35
2022-10-05T11:57:44.826Z,18.30
2022-10-05T12:00:16.917Z,18.42
2022-10-05T12:03:11.361Z,18.40
2022-10-05T12:05:55.718Z,18.34
2022-10-05T12:08:40.877Z,18.46
2022-10-05T12:11:37.691Z,18.44
2022-10-05T12:14:29.048Z,18.49
2022-10-05T12:17:27.787Z,18.57
2022-10-05T12:20:16.140Z,18.63
2022-10-05T12:23:05.776Z,18.62
2022-10-05T12:25:39.945Z,18.68
2022-10-05T12:28:13.144Z,18.69
2022-10-05T12:31:07.776Z,18.73
2022-10-05T12:34:00.434Z,18.74
2022-10-05T12:36:46.284Z,18.74
2022-10-05T12:39:45.017Z,18.77
2022-10-05T12:42:14.341Z,18.75
2022-10-05T12:45:06.387Z,18.73
2022-10-05T12:47:59.131Z,18.80
2022-10-05T12:50:35.746Z,18.77
2022-10-05T12:53:11.104Z,18.73
2022-10-05T12:55:59.222Z,18.49
2022-10-05T12:58:28.763Z,18.83
2022-10-05T13:01:01.337Z,18.84
2022-10-05T13:03:48.627Z,18.80
2022-10-05T13:06:39.239Z,18.90
2022-10-05T13:09:29.133Z,18.79
2022-10-05T13:12:00.499Z,18.76
2022-10-05T13:14:55.473Z,18.69
2022-10-05T13:17:57.986Z,18.77
2022-10-05T13:20:30.395Z,18.63
2022-10-05T13:23:11.840Z,18.59
2022-10-05T13:25:46.639Z,18.73
2022-10-05T13:28:35.858Z,18.79
2022-10-05T13:31:18.011Z,18.81
2022-10-05T13:34:02.673Z,18.71
2022-10-05T13:36:42.280Z,18.76
2022-10-05T13:39:30.566Z,18.78
2022-10-05T13:42:10.376Z,18.77
2022-10-05T13:44:53.050Z,18.79
2022-10-05T13:47:41.114Z,18.82
2022-10-05T13:50:22.562Z,18.86
2022-10-05T13:53:04.195Z,18.80
2022-10-05T13:55:37.366Z,18.71
2022-10-05T13:58:42.988Z,18.67
2022-10-05T14:01:35.243Z,18.66
2022-10-05T14:04:04.590Z,18.56
2022-10-05T14:06:36.589Z,18.46
2022-10-05T14:09:03.363Z,18.57
2022-10-05T14:11:35.558Z,18.50
2022-10-05T14:14:23.407Z,18.46
2022-10-05T14:16:56.778Z,18.46
2022-10-05T14:19:23.595Z,18.26
2022-10-05T14:22:11.983Z,18.16
2022-10-05T14:24:52.153Z,18.14
2022-10-05T14:27:28.148Z,18.23
2022-10-05T14:30:01.923Z,18.40
2022-10-05T14:32:44.169Z,18.34
2022-10-05T14:35:10.705Z,18.44
2022-10-05T14:37:49.530Z,18.41
2022-10-05T14:40:21.933Z,18.44
2022-10-05T14:42:49.821Z,18.44
2022-10-05T14:45:23.619Z,18.47
2022-10-05T14:47:52.906Z,18.50
2022-10-05T14:50:26.219Z,18.43
2022-10-05T14:53:10.951Z,18.44
2022-10-05T14:55:37.467Z,18.40
2022-10-05T14:58:06.942Z,18.28
2022-10-05T15:00:43.577Z,18.18
2022-10-05T15:03:22.954Z,18.14
2022-10-05T15:06:00.274Z,18.23
2022-10-05T15:08:52.353Z,18.23
2022-10-05T15:11:21.889Z,18.10
2022-10-05T15:13:49.417Z,18.11
2022-10-05T15:16:21.502Z,18.15
2022-10-05T15:19:15.991Z,18.02
2022-10-05T15:22:14.153Z,18.06
2022-10-05T15:24:46.162Z,17.98
2022-10-05T15:27:26.218Z,17.95
2022-10-05T15:30:19.537Z,18.03
2022-10-05T15:33:27.855Z,18.00
2022-10-05T15:36:16.247Z,17.92
2022-10-05T15:39:00.361Z,17.93
2022-10-05T15:41:49.195Z,17.92
2022-10-05T15:44:40.255Z,17.86
2022-10-05T15:47:13.880Z,17.83
2022-10-05T15:50:06.917Z,17.88
2022-10-05T15:52:43.797Z,17.82
2022-10-05T15:55:28.606Z,17.80
2022-10-05T15:58:23.193Z,17.80
2022-10-05T16:01:10.399Z,17.77
2022-10-05T16:03:49.742Z,17.72
2022-10-05T16:07:15.591Z,17.66
2022-10-05T16:10:00.503Z,17.63
2022-10-05T16:12:40.627Z,17.56
2022-10-05T16:15:21.646Z,17.52
2022-10-05T16:17:59.102Z,17.53
2022-10-05T16:20:32.681Z,17.48
2022-10-05T16:23:06.224Z,17.47
2022-10-05T16:25:58.734Z,17.39
2022-10-05T16:28:40.705Z,17.34
2022-10-05T16:31:26.755Z,17.25
2022-10-05T16:34:22.169Z,17.21
2022-10-05T16:37:06.543Z,17.14
2022-10-05T16:40:08.581Z,17.08
2022-10-05T16:43:11.025Z,17.01
2022-10-05T16:45:46.137Z,16.83
2022-10-05T16:48:34.583Z,16.81
2022-10-05T16:51:24.389Z,16.77
2022-10-05T16:54:01.378Z,16.69
2022-10-05T16:56:37.563Z,16.64
2022-10-05T16:59:07.177Z,16.63
2022-10-05T17:01:49.126Z,16.64
2022-10-05T17:04:21.189Z,16.55
2022-10-05T17:07:02.798Z,16.55
2022-10-05T17:09:49.060Z,16.44
2022-10-05T17:12:32.929Z,16.40
2022-10-05T17:15:11.338Z,16.28
2022-10-05T17:17:53.035Z,16.32
2022-10-05T17:20:31.805Z,16.32
2022-10-05T17:23:05.955Z,16.30
2022-10-05T17:25:41.769Z,16.21
2022-10-05T17:28:23.202Z,16.26
2022-10-05T17:30:51.429Z,16.15
2022-10-05T17:33:25.487Z,16.13
2022-10-05T17:36:09.666Z,16.05
2022-10-05T17:38:48.566Z,15.94
2022-10-05T17:41:22.261Z,15.82
2022-10-05T17:44:16.008Z,15.81
2022-10-05T17:46:51.092Z,15.80
2022-10-05T17:49:36.414Z,15.75
2022-10-05T17:52:23.689Z,15.75
2022-10-05T17:55:08.870Z,15.81
2022-10-05T17:57:36.961Z,15.81
2022-10-05T18:00:32.363Z,15.83
2022-10-05T18:02:59.355Z,15.87
2022-10-05T18:05:28.647Z,15.86
2022-10-05T18:08:13.530Z,15.80
2022-10-05T18:11:35.398Z,15.77
2022-10-05T18:14:25.330Z,15.74
2022-10-05T18:17:01.653Z,15.84
2022-10-05T18:19:32.335Z,15.80
2022-10-05T18:22:27.837Z,15.76
2022-10-05T18:25:08.974Z,15.86
2022-10-05T18:27:50.370Z,15.77
2022-10-05T18:30:21.397Z,15.69
2022-10-05T18:33:12.698Z,15.76
2022-10-05T18:35:57.903Z,15.78
2022-10-05T18:38:41.018Z,15.72
2022-10-05T18:41:18.675Z,15.73
2022-10-05T18:43:57.337Z,15.77
2022-10-05T18:46:43.938Z,15.76
2022-10-05T18:49:22.461Z,15.76
2022-10-05T18:52:09.681Z,15.71
2022-10-05T18:54:43.189Z,15.65
2022-10-05T18:57:40.427Z,15.65
2022-10-05T19:00:15.220Z,15.62
2022-10-05T19:02:50.960Z,15.56
2022-10-05T19:05:58.902Z,15.54
2022-10-05T19:08:32.768Z,15.48
2022-10-05T19:11:23.150Z,15.46
2022-10-05T19:14:05.616Z,15.41
2022-10-05T19:16:45.557Z,15.36
2022-10-05T19:19:32.425Z,15.27
2022-10-05T19:22:09.015Z,15.32
2022-10-05T19:25:14.395Z,15.33
2022-10-05T19:27:56.812Z,15.33
2022-10-05T19:30:27.212Z,15.25
2022-10-05T19:33:04.982Z,15.21
2022-10-05T19:35:58.273Z,15.17
2022-10-05T19:38:45.974Z,15.15
2022-10-05T19:41:22.481Z,15.24
2022-10-05T19:44:13.698Z,15.27
2022-10-05T19:46:54.032Z,15.29
2022-10-05T19:49:42.980Z,15.30
2022-10-05T19:52:13.806Z,15.39
2022-10-05T19:54:42.418Z,15.47
2022-10-05T19:57:17.915Z,15.54
2022-10-05T19:59:46.332Z,15.59
2022-10-05T20:02:16.911Z,15.67
2022-10-05T20:04:47.515Z,15.66
2022-10-05T20:07:17.592Z,15.61
2022-10-05T20:09:54.857Z,15.60
2022-10-05T20:12:23.106Z,15.54
2022-10-05T20:15:25.416Z,15.50
2022-10-05T20:18:18.184Z,15.44
2022-10-05T20:20:48.455Z,15.37
2022-10-05T20:23:24.098Z,15.33
2022-10-05T20:26:10.895Z,15.32
2022-10-05T20:28:37.872Z,15.28
2022-10-05T20:31:07.716Z,15.27
2022-10-05T20:33:34.497Z,15.25
2022-10-05T20:36:03.674Z,15.22
2022-10-05T20:38:31.660Z,15.22
2022-10-05T20:40:58.485Z,15.16
2022-10-05T20:43:25.166Z,15.14
2022-10-05T20:45:52.272Z,15.10
2022-10-05T20:48:19.513Z,15.11
2022-10-05T20:50:47.318Z,15.10
2022-10-05T20:53:14.233Z,15.09
2022-10-05T20:55:40.903Z,15.06
2022-10-05T20:58:08.968Z,14.98
2022-10-05T21:00:54.424Z,14.90
2022-10-05T21:03:21.058Z,14.86
2022-10-05T21:05:47.706Z,14.90
2022-10-05T21:08:14.274Z,14.93
2022-10-05T21:10:40.989Z,14.83
2022-10-05T21:13:07.602Z,14.80
2022-10-05T21:15:34.240Z,14.78
2022-10-05T21:18:00.787Z,14.81
2022-10-05T21:20:27.453Z,14.82
2022-10-05T21:22:54.048Z,14.78
2022-10-05T21:25:20.623Z,14.76
2022-10-05T21:27:48.634Z,14.71
2022-10-05T21:30:15.494Z,14.70
2022-10-05T21:32:44.645Z,14.75
2022-10-05T21:35:11.488Z,14.81
2022-10-05T21:37:38.083Z,14.83
2022-10-05T21:40:05.020Z,14.86
2022-10-05T21:42:31.836Z,14.90
2022-10-05T21:44:58.427Z,14.91
2022-10-05T21:47:25.782Z,14.92
2022-10-05T21:49:52.703Z,14.92
2022-10-05T21:52:20.274Z,14.90
2022-10-05T21:54:47.047Z,14.94
2022-10-05T21:57:14.671Z,14.90
2022-10-05T21:59:41.357Z,14.86
2022-10-05T22:02:07.930Z,14.83
2022-10-05T22:04:34.506Z,14.78
2022-10-05T22:07:01.210Z,14.73
2022-10-05T22:09:27.879Z,14.63
2022-10-05T22:11:54.939Z,14.60
2022-10-05T22:14:21.597Z,14.60
2022-10-05T22:16:48.333Z,14.61
2022-10-05T22:19:18.541Z,14.66
2022-10-05T22:21:45.205Z,14.70
2022-10-05T22:24:11.852Z,14.74
2022-10-05T22:26:40.243Z,14.76
2022-10-05T22:29:07.028Z,14.67
2022-10-05T22:31:33.815Z,14.67
2022-10-05T22:34:00.485Z,14.67
2022-10-05T22:36:27.151Z,14.65
2022-10-05T22:38:53.709Z,14.62
2022-10-05T22:41:20.903Z,14.67
2022-10-05T22:43:50.162Z,14.70
2022-10-05T22:46:17.203Z,14.72
2022-10-05T22:48:43.827Z,14.76
2022-10-05T22:51:10.478Z,14.79
2022-10-05T22:53:37.524Z,14.80
2022-10-05T22:56:09.091Z,14.79
2022-10-05T22:58:36.547Z,14.76
2022-10-05T23:01:09.136Z,14.78
2022-10-05T23:03:35.845Z,14.73
2022-10-05T23:06:09.058Z,14.71
2022-10-05T23:08:37.135Z,14.67
2022-10-05T23:11:12.898Z,14.66
2022-10-05T23:13:40.544Z,14.66
2022-10-05T23:16:09.863Z,14.65
2022-10-05T23:18:36.921Z,14.61
2022-10-05T23:21:07.366Z,14.57
2022-10-05T23:23:38.100Z,14.50
2022-10-05T23:26:06.079Z,14.45
2022-10-05T23:28:33.735Z,14.42
2022-10-05T23:31:03.111Z,14.38
2022-10-05T23:33:30.102Z,14.30
2022-10-05T23:36:03.817Z,14.25
2022-10-05T23:38:31.304Z,14.21
2022-10-05T23:41:02.483Z,14.22
2022-10-05T23:43:29.520Z,14.24
2022-10-05T23:45:56.492Z,14.30
2022-10-05T23:48:23.421Z,14.32
2022-10-05T23:50:50.449Z,14.39
2022-10-05T23:53:18.307Z,14.42
2022-10-05T23:55:45.646Z,14.42
2022-10-05T23:58:12.398Z,14.42
